sensor_id;sensor_type;location;lat;lon;timestamp;P1;durP1;ratioP1;P2;durP2;ratioP2
60478;SDS011;46321;48.398;11.754;2022-12-29T00:01:08;3.03;;;1.70;;
60478;SDS011;46321;48.398;11.754;2022-12-29T00:03:33;3.17;;;1.80;;
60478;SDS011;46321;48.398;11.754;2022-12-29T00:05:59;4.75;;;1.58;;
60478;SDS011;46321;48.398;11.754;2022-12-29T00:08:25;2.70;;;1.50;;
60478;SDS011;46321;48.398;11.754;2022-12-29T00:11:05;3.08;;;1.63;;
60478;SDS011;46321;48.398;11.754;2022-12-29T00:13:31;2.80;;;1.38;;
60478;SDS011;46321;48.398;11.754;2022-12-29T00:16:15;3.10;;;1.50;;
60478;SDS011;46321;48.398;11.754;2022-12-29T00:18:40;2.95;;;1.50;;
60478;SDS011;46321;48.398;11.754;2022-12-29T00:21:05;2.65;;;1.40;;
60478;SDS011;46321;48.398;11.754;2022-12-29T00:23:49;2.90;;;1.63;;
60478;SDS011;46321;48.398;11.754;2022-12-29T00:29:46;2.88;;;1.75;;
60478;SDS011;46321;48.398;11.754;2022-12-29T00:32:30;2.22;;;1.35;;
60478;SDS011;46321;48.398;11.754;2022-12-29T00:35:15;3.47;;;1.55;;
60478;SDS011;46321;48.398;11.754;2022-12-29T00:37:47;3.17;;;1.60;;
60478;SDS011;46321;48.398;11.754;2022-12-29T00:40:31;2.20;;;1.35;;
60478;SDS011;46321;48.398;11.754;2022-12-29T00:43:15;3.97;;;1.60;;
60478;SDS011;46321;48.398;11.754;2022-12-29T00:45:59;3.00;;;1.23;;
60478;SDS011;46321;48.398;11.754;2022-12-29T00:48:24;2.90;;;1.58;;
60478;SDS011;46321;48.398;11.754;2022-12-29T00:51:08;2.78;;;1.63;;
60478;SDS011;46321;48.398;11.754;2022-12-29T00:53:34;2.78;;;1.58;;
60478;SDS011;46321;48.398;11.754;2022-12-29T00:55:59;4.05;;;1.48;;
60478;SDS011;46321;48.398;11.754;2022-12-29T00:58:28;2.63;;;1.45;;
60478;SDS011;46321;48.398;11.754;2022-12-29T01:01:02;3.25;;;1.55;;
60478;SDS011;46321;48.398;11.754;2022-12-29T01:03:28;2.13;;;1.33;;
60478;SDS011;46321;48.398;11.754;2022-12-29T01:05:53;2.35;;;1.30;;
60478;SDS011;46321;48.398;11.754;2022-12-29T01:08:19;2.63;;;1.13;;
60478;SDS011;46321;48.398;11.754;2022-12-29T01:10:44;2.05;;;1.30;;
60478;SDS011;46321;48.398;11.754;2022-12-29T01:13:09;1.65;;;1.08;;
60478;SDS011;46321;48.398;11.754;2022-12-29T01:15:34;2.75;;;1.33;;
60478;SDS011;46321;48.398;11.754;2022-12-29T01:18:00;2.22;;;1.20;;
60478;SDS011;46321;48.398;11.754;2022-12-29T01:20:25;3.10;;;1.40;;
60478;SDS011;46321;48.398;11.754;2022-12-29T01:22:52;1.95;;;1.33;;
60478;SDS011;46321;48.398;11.754;2022-12-29T01:25:17;1.90;;;1.13;;
60478;SDS011;46321;48.398;11.754;2022-12-29T01:27:42;2.92;;;1.50;;
60478;SDS011;46321;48.398;11.754;2022-12-29T01:30:08;3.00;;;1.75;;
60478;SDS011;46321;48.398;11.754;2022-12-29T01:32:33;3.08;;;1.52;;
60478;SDS011;46321;48.398;11.754;2022-12-29T01:34:59;2.80;;;1.40;;
60478;SDS011;46321;48.398;11.754;2022-12-29T01:37:24;3.47;;;1.33;;
60478;SDS011;46321;48.398;11.754;2022-12-29T01:39:49;3.13;;;1.40;;
60478;SDS011;46321;48.398;11.754;2022-12-29T01:42:16;3.08;;;1.30;;
60478;SDS011;46321;48.398;11.754;2022-12-29T01:47:38;2.65;;;1.38;;
60478;SDS011;46321;48.398;11.754;2022-12-29T01:50:30;2.65;;;1.30;;
60478;SDS011;46321;48.398;11.754;2022-12-29T01:52:59;2.42;;;1.10;;
60478;SDS011;46321;48.398;11.754;2022-12-29T01:55:29;1.92;;;1.13;;
60478;SDS011;46321;48.398;11.754;2022-12-29T01:57:58;2.75;;;1.40;;
60478;SDS011;46321;48.398;11.754;2022-12-29T02:00:28;1.98;;;1.15;;
60478;SDS011;46321;48.398;11.754;2022-12-29T02:02:53;2.13;;;1.30;;
60478;SDS011;46321;48.398;11.754;2022-12-29T02:05:38;2.30;;;1.10;;
60478;SDS011;46321;48.398;11.754;2022-12-29T02:08:31;2.95;;;1.38;;
60478;SDS011;46321;48.398;11.754;2022-12-29T02:10:57;3.00;;;1.20;;
60478;SDS011;46321;48.398;11.754;2022-12-29T02:13:25;1.90;;;1.17;;
60478;SDS011;46321;48.398;11.754;2022-12-29T02:21:59;2.17;;;1.20;;
60478;SDS011;46321;48.398;11.754;2022-12-29T02:30:15;2.35;;;1.00;;
60478;SDS011;46321;48.398;11.754;2022-12-29T02:33:17;1.83;;;0.93;;
60478;SDS011;46321;48.398;11.754;2022-12-29T02:36:13;2.78;;;1.15;;
60478;SDS011;46321;48.398;11.754;2022-12-29T02:38:49;1.70;;;0.90;;
60478;SDS011;46321;48.398;11.754;2022-12-29T02:44:17;1.17;;;0.85;;
60478;SDS011;46321;48.398;11.754;2022-12-29T02:52:42;2.28;;;0.90;;
60478;SDS011;46321;48.398;11.754;2022-12-29T02:55:12;1.33;;;0.90;;
60478;SDS011;46321;48.398;11.754;2022-12-29T02:57:38;2.10;;;0.88;;
60478;SDS011;46321;48.398;11.754;2022-12-29T03:00:07;1.20;;;0.80;;
60478;SDS011;46321;48.398;11.754;2022-12-29T03:05:17;1.30;;;0.88;;
60478;SDS011;46321;48.398;11.754;2022-12-29T03:10:44;1.83;;;1.00;;
60478;SDS011;46321;48.398;11.754;2022-12-29T03:13:28;1.50;;;1.00;;
60478;SDS011;46321;48.398;11.754;2022-12-29T03:16:34;1.13;;;0.73;;
60478;SDS011;46321;48.398;11.754;2022-12-29T03:19:14;1.40;;;0.70;;
60478;SDS011;46321;48.398;11.754;2022-12-29T03:21:44;3.40;;;1.00;;
60478;SDS011;46321;48.398;11.754;2022-12-29T03:24:31;1.70;;;1.13;;
60478;SDS011;46321;48.398;11.754;2022-12-29T03:27:01;1.25;;;0.70;;
60478;SDS011;46321;48.398;11.754;2022-12-29T03:29:29;1.58;;;0.80;;
60478;SDS011;46321;48.398;11.754;2022-12-29T03:31:58;1.38;;;0.82;;
60478;SDS011;46321;48.398;11.754;2022-12-29T03:34:26;3.90;;;0.73;;
60478;SDS011;46321;48.398;11.754;2022-12-29T03:36:54;1.38;;;0.85;;
60478;SDS011;46321;48.398;11.754;2022-12-29T03:39:24;1.30;;;0.80;;
60478;SDS011;46321;48.398;11.754;2022-12-29T03:41:50;1.40;;;0.90;;
60478;SDS011;46321;48.398;11.754;2022-12-29T03:44:38;1.92;;;0.95;;
60478;SDS011;46321;48.398;11.754;2022-12-29T03:47:06;1.98;;;0.85;;
60478;SDS011;46321;48.398;11.754;2022-12-29T03:49:32;1.45;;;0.82;;
60478;SDS011;46321;48.398;11.754;2022-12-29T03:51:58;3.13;;;0.95;;
60478;SDS011;46321;48.398;11.754;2022-12-29T03:54:23;3.10;;;0.90;;
60478;SDS011;46321;48.398;11.754;2022-12-29T03:56:49;1.85;;;0.80;;
60478;SDS011;46321;48.398;11.754;2022-12-29T03:59:14;1.95;;;0.90;;
60478;SDS011;46321;48.398;11.754;2022-12-29T04:01:39;2.35;;;0.95;;
60478;SDS011;46321;48.398;11.754;2022-12-29T04:04:04;1.15;;;0.60;;
60478;SDS011;46321;48.398;11.754;2022-12-29T04:06:30;1.20;;;0.70;;
60478;SDS011;46321;48.398;11.754;2022-12-29T04:08:55;1.08;;;0.80;;
60478;SDS011;46321;48.398;11.754;2022-12-29T04:11:20;1.40;;;0.65;;
60478;SDS011;46321;48.398;11.754;2022-12-29T04:13:46;1.25;;;0.60;;
60478;SDS011;46321;48.398;11.754;2022-12-29T04:16:11;1.30;;;0.70;;
60478;SDS011;46321;48.398;11.754;2022-12-29T04:18:37;1.17;;;0.70;;
60478;SDS011;46321;48.398;11.754;2022-12-29T04:21:02;1.30;;;0.65;;
60478;SDS011;46321;48.398;11.754;2022-12-29T04:23:29;0.98;;;0.63;;
60478;SDS011;46321;48.398;11.754;2022-12-29T04:25:55;1.75;;;0.70;;
60478;SDS011;46321;48.398;11.754;2022-12-29T04:28:21;0.70;;;0.52;;
60478;SDS011;46321;48.398;11.754;2022-12-29T04:30:46;1.80;;;0.68;;
60478;SDS011;46321;48.398;11.754;2022-12-29T04:33:12;2.13;;;0.70;;
60478;SDS011;46321;48.398;11.754;2022-12-29T04:35:38;1.27;;;0.75;;
60478;SDS011;46321;48.398;11.754;2022-12-29T04:38:03;1.38;;;0.60;;
60478;SDS011;46321;48.398;11.754;2022-12-29T04:40:29;1.35;;;0.65;;
60478;SDS011;46321;48.398;11.754;2022-12-29T04:42:54;1.20;;;0.55;;
60478;SDS011;46321;48.398;11.754;2022-12-29T04:45:20;0.65;;;0.60;;
60478;SDS011;46321;48.398;11.754;2022-12-29T04:47:45;0.77;;;0.45;;
60478;SDS011;46321;48.398;11.754;2022-12-29T04:50:10;0.95;;;0.55;;
60478;SDS011;46321;48.398;11.754;2022-12-29T04:52:36;0.90;;;0.60;;
60478;SDS011;46321;48.398;11.754;2022-12-29T04:55:02;1.30;;;0.65;;
60478;SDS011;46321;48.398;11.754;2022-12-29T04:57:28;0.90;;;0.50;;
60478;SDS011;46321;48.398;11.754;2022-12-29T04:59:54;4.72;;;0.70;;
60478;SDS011;46321;48.398;11.754;2022-12-29T05:02:19;3.00;;;0.77;;
60478;SDS011;46321;48.398;11.754;2022-12-29T05:04:44;0.95;;;0.55;;
60478;SDS011;46321;48.398;11.754;2022-12-29T05:07:10;1.17;;;0.80;;
60478;SDS011;46321;48.398;11.754;2022-12-29T05:09:36;1.48;;;0.60;;
60478;SDS011;46321;48.398;11.754;2022-12-29T05:12:01;1.15;;;0.52;;
60478;SDS011;46321;48.398;11.754;2022-12-29T05:14:26;0.60;;;0.50;;
60478;SDS011;46321;48.398;11.754;2022-12-29T05:16:51;1.10;;;0.55;;
60478;SDS011;46321;48.398;11.754;2022-12-29T05:19:17;0.93;;;0.60;;
60478;SDS011;46321;48.398;11.754;2022-12-29T05:21:42;1.77;;;0.63;;
60478;SDS011;46321;48.398;11.754;2022-12-29T05:24:08;1.63;;;0.80;;
60478;SDS011;46321;48.398;11.754;2022-12-29T05:26:34;0.88;;;0.43;;
60478;SDS011;46321;48.398;11.754;2022-12-29T05:28:59;1.63;;;0.70;;
60478;SDS011;46321;48.398;11.754;2022-12-29T05:31:25;0.88;;;0.47;;
60478;SDS011;46321;48.398;11.754;2022-12-29T05:33:51;0.95;;;0.50;;
60478;SDS011;46321;48.398;11.754;2022-12-29T05:36:17;0.82;;;0.50;;
60478;SDS011;46321;48.398;11.754;2022-12-29T05:38:42;1.67;;;0.70;;
60478;SDS011;46321;48.398;11.754;2022-12-29T05:41:07;2.17;;;0.65;;
60478;SDS011;46321;48.398;11.754;2022-12-29T05:43:33;1.08;;;0.85;;
60478;SDS011;46321;48.398;11.754;2022-12-29T05:45:58;1.00;;;0.52;;
60478;SDS011;46321;48.398;11.754;2022-12-29T05:48:23;1.02;;;0.55;;
60478;SDS011;46321;48.398;11.754;2022-12-29T05:50:49;1.70;;;0.80;;
60478;SDS011;46321;48.398;11.754;2022-12-29T05:53:16;1.60;;;0.75;;
60478;SDS011;46321;48.398;11.754;2022-12-29T05:55:42;0.95;;;0.45;;
60478;SDS011;46321;48.398;11.754;2022-12-29T05:58:08;1.20;;;0.40;;
60478;SDS011;46321;48.398;11.754;2022-12-29T06:00:33;1.42;;;0.60;;
60478;SDS011;46321;48.398;11.754;2022-12-29T06:02:58;1.13;;;0.70;;
60478;SDS011;46321;48.398;11.754;2022-12-29T06:05:24;1.15;;;0.60;;
60478;SDS011;46321;48.398;11.754;2022-12-29T06:07:49;0.63;;;0.50;;
60478;SDS011;46321;48.398;11.754;2022-12-29T06:10:14;0.55;;;0.40;;
60478;SDS011;46321;48.398;11.754;2022-12-29T06:12:39;1.30;;;0.60;;
60478;SDS011;46321;48.398;11.754;2022-12-29T06:15:05;0.88;;;0.63;;
60478;SDS011;46321;48.398;11.754;2022-12-29T06:17:31;1.02;;;0.57;;
60478;SDS011;46321;48.398;11.754;2022-12-29T06:19:56;0.95;;;0.55;;
60478;SDS011;46321;48.398;11.754;2022-12-29T06:22:22;1.08;;;0.70;;
60478;SDS011;46321;48.398;11.754;2022-12-29T06:24:47;1.25;;;0.60;;
60478;SDS011;46321;48.398;11.754;2022-12-29T06:27:12;1.60;;;0.60;;
60478;SDS011;46321;48.398;11.754;2022-12-29T06:29:38;1.35;;;0.70;;
60478;SDS011;46321;48.398;11.754;2022-12-29T06:32:05;8.63;;;1.02;;
60478;SDS011;46321;48.398;11.754;2022-12-29T06:34:31;1.65;;;0.68;;
60478;SDS011;46321;48.398;11.754;2022-12-29T06:36:56;1.50;;;0.70;;
60478;SDS011;46321;48.398;11.754;2022-12-29T06:39:21;1.55;;;0.70;;
60478;SDS011;46321;48.398;11.754;2022-12-29T06:41:46;1.30;;;0.70;;
60478;SDS011;46321;48.398;11.754;2022-12-29T06:44:12;1.90;;;0.68;;
60478;SDS011;46321;48.398;11.754;2022-12-29T06:46:37;0.73;;;0.50;;
60478;SDS011;46321;48.398;11.754;2022-12-29T06:49:02;2.30;;;0.60;;
60478;SDS011;46321;48.398;11.754;2022-12-29T06:51:28;1.35;;;0.75;;
60478;SDS011;46321;48.398;11.754;2022-12-29T06:53:53;1.15;;;0.65;;
60478;SDS011;46321;48.398;11.754;2022-12-29T06:56:18;0.98;;;0.57;;
60478;SDS011;46321;48.398;11.754;2022-12-29T06:58:43;1.35;;;0.60;;
60478;SDS011;46321;48.398;11.754;2022-12-29T07:01:09;1.42;;;0.70;;
60478;SDS011;46321;48.398;11.754;2022-12-29T07:03:34;1.13;;;0.60;;
60478;SDS011;46321;48.398;11.754;2022-12-29T07:06:00;5.63;;;1.00;;
60478;SDS011;46321;48.398;11.754;2022-12-29T07:08:25;1.17;;;0.60;;
60478;SDS011;46321;48.398;11.754;2022-12-29T07:10:50;1.15;;;0.70;;
60478;SDS011;46321;48.398;11.754;2022-12-29T07:13:15;2.15;;;0.60;;
60478;SDS011;46321;48.398;11.754;2022-12-29T07:15:41;1.98;;;0.65;;
60478;SDS011;46321;48.398;11.754;2022-12-29T07:18:06;1.90;;;1.08;;
60478;SDS011;46321;48.398;11.754;2022-12-29T07:20:31;2.67;;;0.98;;
60478;SDS011;46321;48.398;11.754;2022-12-29T07:22:57;2.08;;;0.75;;
60478;SDS011;46321;48.398;11.754;2022-12-29T07:25:22;2.25;;;1.25;;
60478;SDS011;46321;48.398;11.754;2022-12-29T07:27:48;2.58;;;1.13;;
60478;SDS011;46321;48.398;11.754;2022-12-29T07:30:13;3.08;;;1.40;;
60478;SDS011;46321;48.398;11.754;2022-12-29T07:32:39;5.47;;;2.03;;
60478;SDS011;46321;48.398;11.754;2022-12-29T07:35:05;19.10;;;8.25;;
60478;SDS011;46321;48.398;11.754;2022-12-29T07:37:30;11.60;;;5.53;;
60478;SDS011;46321;48.398;11.754;2022-12-29T07:39:55;6.38;;;2.55;;
60478;SDS011;46321;48.398;11.754;2022-12-29T07:42:21;4.15;;;2.10;;
60478;SDS011;46321;48.398;11.754;2022-12-29T07:44:46;4.65;;;2.17;;
60478;SDS011;46321;48.398;11.754;2022-12-29T07:47:11;4.22;;;1.73;;
60478;SDS011;46321;48.398;11.754;2022-12-29T07:49:36;1.88;;;1.20;;
60478;SDS011;46321;48.398;11.754;2022-12-29T07:52:02;4.50;;;1.25;;
60478;SDS011;46321;48.398;11.754;2022-12-29T07:54:27;3.42;;;1.15;;
60478;SDS011;46321;48.398;11.754;2022-12-29T07:56:53;2.30;;;1.10;;
60478;SDS011;46321;48.398;11.754;2022-12-29T07:59:19;2.03;;;1.10;;
60478;SDS011;46321;48.398;11.754;2022-12-29T08:01:44;3.10;;;1.10;;
60478;SDS011;46321;48.398;11.754;2022-12-29T08:04:09;2.30;;;1.00;;
60478;SDS011;46321;48.398;11.754;2022-12-29T08:06:35;2.10;;;1.13;;
60478;SDS011;46321;48.398;11.754;2022-12-29T08:09:00;2.80;;;1.25;;
60478;SDS011;46321;48.398;11.754;2022-12-29T08:11:26;3.03;;;1.40;;
60478;SDS011;46321;48.398;11.754;2022-12-29T08:13:52;5.63;;;1.48;;
60478;SDS011;46321;48.398;11.754;2022-12-29T08:16:17;4.47;;;1.48;;
60478;SDS011;46321;48.398;11.754;2022-12-29T08:18:43;3.15;;;1.40;;
60478;SDS011;46321;48.398;11.754;2022-12-29T08:21:08;2.47;;;1.25;;
60478;SDS011;46321;48.398;11.754;2022-12-29T08:23:33;2.15;;;0.90;;
60478;SDS011;46321;48.398;11.754;2022-12-29T08:25:59;3.42;;;1.10;;
60478;SDS011;46321;48.398;11.754;2022-12-29T08:28:26;3.95;;;1.40;;
60478;SDS011;46321;48.398;11.754;2022-12-29T08:30:51;1.60;;;1.20;;
60478;SDS011;46321;48.398;11.754;2022-12-29T08:33:17;2.63;;;1.42;;
60478;SDS011;46321;48.398;11.754;2022-12-29T08:35:42;4.28;;;1.35;;
60478;SDS011;46321;48.398;11.754;2022-12-29T08:38:08;2.13;;;1.17;;
60478;SDS011;46321;48.398;11.754;2022-12-29T08:40:33;2.47;;;1.15;;
60478;SDS011;46321;48.398;11.754;2022-12-29T08:42:58;1.83;;;1.08;;
60478;SDS011;46321;48.398;11.754;2022-12-29T08:45:24;3.53;;;1.33;;
60478;SDS011;46321;48.398;11.754;2022-12-29T08:47:49;2.22;;;1.10;;
60478;SDS011;46321;48.398;11.754;2022-12-29T08:50:14;5.00;;;1.17;;
60478;SDS011;46321;48.398;11.754;2022-12-29T08:52:40;2.20;;;1.20;;
60478;SDS011;46321;48.398;11.754;2022-12-29T08:55:05;2.13;;;1.30;;
60478;SDS011;46321;48.398;11.754;2022-12-29T08:57:30;2.38;;;1.33;;
60478;SDS011;46321;48.398;11.754;2022-12-29T08:59:56;2.30;;;1.10;;
60478;SDS011;46321;48.398;11.754;2022-12-29T09:02:21;1.95;;;1.30;;
60478;SDS011;46321;48.398;11.754;2022-12-29T09:04:46;3.00;;;1.00;;
60478;SDS011;46321;48.398;11.754;2022-12-29T09:07:12;3.25;;;1.00;;
60478;SDS011;46321;48.398;11.754;2022-12-29T09:09:37;3.10;;;0.95;;
60478;SDS011;46321;48.398;11.754;2022-12-29T09:12:02;1.95;;;1.10;;
60478;SDS011;46321;48.398;11.754;2022-12-29T09:14:28;5.85;;;3.58;;
60478;SDS011;46321;48.398;11.754;2022-12-29T09:16:53;12.73;;;7.22;;
60478;SDS011;46321;48.398;11.754;2022-12-29T09:19:38;2.72;;;1.60;;
60478;SDS011;46321;48.398;11.754;2022-12-29T09:22:04;1.30;;;0.90;;
60478;SDS011;46321;48.398;11.754;2022-12-29T09:24:29;1.50;;;1.00;;
60478;SDS011;46321;48.398;11.754;2022-12-29T09:26:54;3.08;;;1.10;;
60478;SDS011;46321;48.398;11.754;2022-12-29T09:29:20;2.75;;;1.10;;
60478;SDS011;46321;48.398;11.754;2022-12-29T09:31:45;4.15;;;0.85;;
60478;SDS011;46321;48.398;11.754;2022-12-29T09:34:10;1.27;;;0.77;;
60478;SDS011;46321;48.398;11.754;2022-12-29T09:36:36;3.50;;;0.70;;
60478;SDS011;46321;48.398;11.754;2022-12-29T09:39:01;1.42;;;0.73;;
60478;SDS011;46321;48.398;11.754;2022-12-29T09:41:29;1.92;;;0.85;;
60478;SDS011;46321;48.398;11.754;2022-12-29T09:44:06;7.63;;;1.75;;
60478;SDS011;46321;48.398;11.754;2022-12-29T09:46:41;2.42;;;1.50;;
60478;SDS011;46321;48.398;11.754;2022-12-29T09:49:15;2.30;;;1.33;;
60478;SDS011;46321;48.398;11.754;2022-12-29T09:51:55;4.38;;;1.60;;
60478;SDS011;46321;48.398;11.754;2022-12-29T09:54:41;3.58;;;1.70;;
60478;SDS011;46321;48.398;11.754;2022-12-29T09:57:21;6.45;;;4.18;;
60478;SDS011;46321;48.398;11.754;2022-12-29T09:59:50;4.45;;;2.60;;
60478;SDS011;46321;48.398;11.754;2022-12-29T10:05:16;1.63;;;1.35;;
60478;SDS011;46321;48.398;11.754;2022-12-29T10:07:52;2.33;;;1.50;;
60478;SDS011;46321;48.398;11.754;2022-12-29T10:16:07;3.75;;;1.30;;
60478;SDS011;46321;48.398;11.754;2022-12-29T10:23:59;3.63;;;1.02;;
60478;SDS011;46321;48.398;11.754;2022-12-29T10:26:31;2.13;;;0.90;;
60478;SDS011;46321;48.398;11.754;2022-12-29T10:29:04;1.83;;;1.15;;
60478;SDS011;46321;48.398;11.754;2022-12-29T10:31:37;11.63;;;1.40;;
60478;SDS011;46321;48.398;11.754;2022-12-29T10:34:13;3.60;;;1.63;;
60478;SDS011;46321;48.398;11.754;2022-12-29T10:36:44;3.88;;;1.73;;
60478;SDS011;46321;48.398;11.754;2022-12-29T10:41:49;2.78;;;1.02;;
60478;SDS011;46321;48.398;11.754;2022-12-29T10:44:29;1.73;;;0.80;;
60478;SDS011;46321;48.398;11.754;2022-12-29T10:47:04;2.60;;;0.85;;
60478;SDS011;46321;48.398;11.754;2022-12-29T10:49:32;2.90;;;1.40;;
60478;SDS011;46321;48.398;11.754;2022-12-29T10:52:04;1.27;;;1.15;;
60478;SDS011;46321;48.398;11.754;2022-12-29T10:54:38;3.28;;;2.78;;
60478;SDS011;46321;48.398;11.754;2022-12-29T10:57:08;2.88;;;0.80;;
60478;SDS011;46321;48.398;11.754;2022-12-29T10:59:38;1.50;;;0.93;;
60478;SDS011;46321;48.398;11.754;2022-12-29T11:09:42;1.10;;;0.93;;
60478;SDS011;46321;48.398;11.754;2022-12-29T11:12:25;3.92;;;1.48;;
60478;SDS011;46321;48.398;11.754;2022-12-29T11:17:49;3.88;;;1.58;;
60478;SDS011;46321;48.398;11.754;2022-12-29T11:20:34;2.13;;;1.63;;
60478;SDS011;46321;48.398;11.754;2022-12-29T11:23:02;2.70;;;0.80;;
60478;SDS011;46321;48.398;11.754;2022-12-29T11:25:29;3.38;;;0.98;;
60478;SDS011;46321;48.398;11.754;2022-12-29T11:27:55;1.17;;;0.88;;
60478;SDS011;46321;48.398;11.754;2022-12-29T11:30:30;1.10;;;0.80;;
60478;SDS011;46321;48.398;11.754;2022-12-29T11:32:57;2.50;;;1.00;;
60478;SDS011;46321;48.398;11.754;2022-12-29T11:35:30;3.20;;;1.02;;
60478;SDS011;46321;48.398;11.754;2022-12-29T11:37:58;1.55;;;0.88;;
60478;SDS011;46321;48.398;11.754;2022-12-29T11:40:23;4.57;;;1.00;;
60478;SDS011;46321;48.398;11.754;2022-12-29T11:47:57;3.92;;;0.80;;
60478;SDS011;46321;48.398;11.754;2022-12-29T11:50:29;1.73;;;0.80;;
60478;SDS011;46321;48.398;11.754;2022-12-29T11:53:20;2.60;;;1.40;;
60478;SDS011;46321;48.398;11.754;2022-12-29T11:55:52;1.38;;;0.80;;
60478;SDS011;46321;48.398;11.754;2022-12-29T11:58:20;1.33;;;0.85;;
60478;SDS011;46321;48.398;11.754;2022-12-29T12:00:45;1.48;;;0.95;;
60478;SDS011;46321;48.398;11.754;2022-12-29T12:03:16;1.25;;;0.80;;
60478;SDS011;46321;48.398;11.754;2022-12-29T12:05:49;2.95;;;1.13;;
60478;SDS011;46321;48.398;11.754;2022-12-29T12:08:27;2.10;;;1.20;;
60478;SDS011;46321;48.398;11.754;2022-12-29T12:11:24;2.25;;;1.30;;
60478;SDS011;46321;48.398;11.754;2022-12-29T12:16:59;1.73;;;1.08;;
60478;SDS011;46321;48.398;11.754;2022-12-29T12:19:34;1.60;;;0.90;;
60478;SDS011;46321;48.398;11.754;2022-12-29T12:22:17;2.45;;;1.50;;
60478;SDS011;46321;48.398;11.754;2022-12-29T12:24:52;2.03;;;1.08;;
60478;SDS011;46321;48.398;11.754;2022-12-29T12:27:24;5.55;;;2.20;;
60478;SDS011;46321;48.398;11.754;2022-12-29T12:33:05;2.25;;;1.27;;
60478;SDS011;46321;48.398;11.754;2022-12-29T12:35:44;2.15;;;1.00;;
60478;SDS011;46321;48.398;11.754;2022-12-29T12:44:38;2.22;;;1.20;;
60478;SDS011;46321;48.398;11.754;2022-12-29T12:47:25;3.08;;;0.93;;
60478;SDS011;46321;48.398;11.754;2022-12-29T12:50:00;1.55;;;0.77;;
60478;SDS011;46321;48.398;11.754;2022-12-29T13:00:19;5.47;;;3.53;;
60478;SDS011;46321;48.398;11.754;2022-12-29T13:05:32;5.53;;;3.33;;
60478;SDS011;46321;48.398;11.754;2022-12-29T13:14:14;1.88;;;1.30;;
60478;SDS011;46321;48.398;11.754;2022-12-29T13:22:07;2.65;;;0.80;;
60478;SDS011;46321;48.398;11.754;2022-12-29T13:30:44;2.70;;;0.95;;
60478;SDS011;46321;48.398;11.754;2022-12-29T13:36:09;2.05;;;1.00;;
60478;SDS011;46321;48.398;11.754;2022-12-29T13:38:48;2.28;;;1.10;;
60478;SDS011;46321;48.398;11.754;2022-12-29T13:41:30;1.65;;;0.90;;
60478;SDS011;46321;48.398;11.754;2022-12-29T13:44:00;2.38;;;1.30;;
60478;SDS011;46321;48.398;11.754;2022-12-29T13:46:29;3.20;;;0.98;;
60478;SDS011;46321;48.398;11.754;2022-12-29T13:49:01;3.17;;;1.98;;
60478;SDS011;46321;48.398;11.754;2022-12-29T13:51:29;3.28;;;1.10;;
60478;SDS011;46321;48.398;11.754;2022-12-29T13:54:05;2.20;;;1.20;;
60478;SDS011;46321;48.398;11.754;2022-12-29T13:56:40;1.20;;;0.82;;
60478;SDS011;46321;48.398;11.754;2022-12-29T14:00:15;1.92;;;0.90;;
60478;SDS011;46321;48.398;11.754;2022-12-29T14:04:57;2.15;;;1.55;;
60478;SDS011;46321;48.398;11.754;2022-12-29T14:07:25;2.00;;;1.10;;
60478;SDS011;46321;48.398;11.754;2022-12-29T14:09:52;1.25;;;0.80;;
60478;SDS011;46321;48.398;11.754;2022-12-29T14:12:20;2.13;;;1.05;;
60478;SDS011;46321;48.398;11.754;2022-12-29T14:15:27;2.17;;;0.90;;
60478;SDS011;46321;48.398;11.754;2022-12-29T14:18:02;3.65;;;1.10;;
60478;SDS011;46321;48.398;11.754;2022-12-29T14:20:30;5.63;;;1.50;;
60478;SDS011;46321;48.398;11.754;2022-12-29T14:22:58;1.85;;;1.10;;
60478;SDS011;46321;48.398;11.754;2022-12-29T14:25:54;2.90;;;0.90;;
60478;SDS011;46321;48.398;11.754;2022-12-29T14:29:15;1.70;;;1.00;;
60478;SDS011;46321;48.398;11.754;2022-12-29T14:33:41;2.40;;;1.42;;
60478;SDS011;46321;48.398;11.754;2022-12-29T14:39:02;3.88;;;2.72;;
60478;SDS011;46321;48.398;11.754;2022-12-29T14:41:35;2.10;;;1.33;;
60478;SDS011;46321;48.398;11.754;2022-12-29T14:46:42;2.20;;;1.25;;
60478;SDS011;46321;48.398;11.754;2022-12-29T14:49:14;2.20;;;1.38;;
60478;SDS011;46321;48.398;11.754;2022-12-29T14:51:42;1.42;;;0.93;;
60478;SDS011;46321;48.398;11.754;2022-12-29T14:57:07;1.98;;;1.52;;
60478;SDS011;46321;48.398;11.754;2022-12-29T14:59:39;2.63;;;1.93;;
60478;SDS011;46321;48.398;11.754;2022-12-29T15:02:11;3.20;;;2.40;;
60478;SDS011;46321;48.398;11.754;2022-12-29T15:04:41;3.45;;;1.77;;
60478;SDS011;46321;48.398;11.754;2022-12-29T15:07:08;2.15;;;1.50;;
60478;SDS011;46321;48.398;11.754;2022-12-29T15:09:44;6.47;;;3.38;;
60478;SDS011;46321;48.398;11.754;2022-12-29T15:12:22;7.03;;;3.78;;
60478;SDS011;46321;48.398;11.754;2022-12-29T15:15:01;14.77;;;7.45;;
60478;SDS011;46321;48.398;11.754;2022-12-29T15:17:41;4.22;;;2.42;;
60478;SDS011;46321;48.398;11.754;2022-12-29T15:22:54;4.35;;;0.90;;
60478;SDS011;46321;48.398;11.754;2022-12-29T15:25:21;1.55;;;0.90;;
60478;SDS011;46321;48.398;11.754;2022-12-29T15:27:51;1.45;;;0.82;;
60478;SDS011;46321;48.398;11.754;2022-12-29T15:30:18;3.95;;;2.75;;
60478;SDS011;46321;48.398;11.754;2022-12-29T15:32:44;5.10;;;4.60;;
60478;SDS011;46321;48.398;11.754;2022-12-29T15:37:54;3.47;;;1.95;;
60478;SDS011;46321;48.398;11.754;2022-12-29T15:40:29;4.53;;;2.58;;
60478;SDS011;46321;48.398;11.754;2022-12-29T15:45:42;3.28;;;1.92;;
60478;SDS011;46321;48.398;11.754;2022-12-29T15:48:26;2.75;;;1.98;;
60478;SDS011;46321;48.398;11.754;2022-12-29T15:50:52;3.17;;;1.77;;
60478;SDS011;46321;48.398;11.754;2022-12-29T15:53:30;13.63;;;4.30;;
60478;SDS011;46321;48.398;11.754;2022-12-29T15:55:59;10.73;;;4.15;;
60478;SDS011;46321;48.398;11.754;2022-12-29T15:58:30;72.28;;;30.48;;
60478;SDS011;46321;48.398;11.754;2022-12-29T16:01:03;13.35;;;5.40;;
60478;SDS011;46321;48.398;11.754;2022-12-29T16:03:33;8.43;;;4.90;;
60478;SDS011;46321;48.398;11.754;2022-12-29T16:06:08;14.00;;;6.50;;
60478;SDS011;46321;48.398;11.754;2022-12-29T16:08:54;4.38;;;1.40;;
60478;SDS011;46321;48.398;11.754;2022-12-29T16:11:31;9.93;;;4.05;;
60478;SDS011;46321;48.398;11.754;2022-12-29T16:14:09;3.53;;;1.60;;
60478;SDS011;46321;48.398;11.754;2022-12-29T16:16:40;2.78;;;1.48;;
60478;SDS011;46321;48.398;11.754;2022-12-29T16:19:13;2.00;;;1.20;;
60478;SDS011;46321;48.398;11.754;2022-12-29T16:21:42;4.05;;;1.40;;
60478;SDS011;46321;48.398;11.754;2022-12-29T16:24:12;2.38;;;1.40;;
60478;SDS011;46321;48.398;11.754;2022-12-29T16:26:45;3.53;;;1.35;;
60478;SDS011;46321;48.398;11.754;2022-12-29T16:29:13;5.40;;;3.00;;
60478;SDS011;46321;48.398;11.754;2022-12-29T16:31:53;42.85;;;23.00;;
60478;SDS011;46321;48.398;11.754;2022-12-29T16:34:29;31.65;;;14.40;;
60478;SDS011;46321;48.398;11.754;2022-12-29T16:39:28;4.10;;;2.05;;
60478;SDS011;46321;48.398;11.754;2022-12-29T16:41:56;23.35;;;11.95;;
60478;SDS011;46321;48.398;11.754;2022-12-29T16:47:02;9.88;;;6.43;;
60478;SDS011;46321;48.398;11.754;2022-12-29T16:49:31;8.75;;;5.10;;
60478;SDS011;46321;48.398;11.754;2022-12-29T16:51:57;48.75;;;26.70;;
60478;SDS011;46321;48.398;11.754;2022-12-29T16:54:24;62.25;;;25.95;;
60478;SDS011;46321;48.398;11.754;2022-12-29T16:56:51;83.07;;;37.90;;
60478;SDS011;46321;48.398;11.754;2022-12-29T16:59:29;32.50;;;15.65;;
60478;SDS011;46321;48.398;11.754;2022-12-29T17:01:59;31.63;;;18.40;;
60478;SDS011;46321;48.398;11.754;2022-12-29T17:04:26;44.25;;;23.60;;